createdAt,value
2019-03-20T00:00:53.742Z,84.42
2019-03-20T00:04:02.388Z,83.97
2019-03-20T00:06:30.687Z,83.85
2019-03-20T00:08:58.909Z,84.20
2019-03-20T00:11:27.135Z,84.33
2019-03-20T00:14:35.712Z,84.08
2019-03-20T00:20:23.517Z,83.36
2019-03-20T00:22:51.787Z,84.50
2019-03-20T00:25:20.111Z,85.46
2019-03-20T00:27:50.568Z,85.28
2019-03-20T00:30:18.839Z,84.31
2019-03-20T00:32:47.036Z,85.13
2019-03-20T00:35:15.279Z,85.13
2019-03-20T00:37:43.467Z,84.97
2019-03-20T00:40:12.144Z,84.50
2019-03-20T00:42:40.339Z,84.53
2019-03-20T00:45:09.959Z,84.50
2019-03-20T00:47:38.140Z,85.33
2019-03-20T00:50:08.551Z,85.29
2019-03-20T00:52:37.164Z,85.40
2019-03-20T00:55:06.052Z,84.96
2019-03-20T00:57:34.024Z,84.87
2019-03-20T01:00:02.418Z,85.51
2019-03-20T01:02:31.004Z,85.67
2019-03-20T01:04:59.236Z,85.21
2019-03-20T01:07:27.049Z,84.95
2019-03-20T01:09:55.605Z,85.33
2019-03-20T01:12:23.885Z,85.99
2019-03-20T01:14:52.090Z,85.08
2019-03-20T01:17:20.376Z,85.00
2019-03-20T01:19:49.076Z,85.78
2019-03-20T01:22:17.361Z,85.71
2019-03-20T01:24:44.915Z,85.74
2019-03-20T01:27:13.500Z,85.29
2019-03-20T01:29:41.795Z,84.85
2019-03-20T01:32:10.410Z,85.54
2019-03-20T01:34:39.074Z,85.86
2019-03-20T01:37:47.682Z,85.47
2019-03-20T01:40:16.075Z,85.90
2019-03-20T01:42:44.593Z,85.75
2019-03-20T01:45:12.932Z,85.83
2019-03-20T01:47:41.626Z,85.87
2019-03-20T01:50:10.144Z,86.47
2019-03-20T01:52:38.484Z,86.03
2019-03-20T01:55:07.201Z,86.28
2019-03-20T01:57:35.866Z,86.36
2019-03-20T02:03:25.345Z,86.31
2019-03-20T02:05:53.618Z,86.89
2019-03-20T02:08:21.930Z,86.45
2019-03-20T02:10:49.883Z,86.27
2019-03-20T02:13:17.900Z,85.73
2019-03-20T02:15:46.144Z,86.14
2019-03-20T02:18:14.419Z,86.74
2019-03-20T02:20:43.106Z,86.74
2019-03-20T02:23:11.736Z,86.90
2019-03-20T02:25:39.998Z,87.05
2019-03-20T02:28:07.926Z,87.21
2019-03-20T02:30:36.597Z,87.10
2019-03-20T02:33:04.939Z,87.26
2019-03-20T02:35:33.212Z,86.56
2019-03-20T02:38:01.802Z,86.24
2019-03-20T02:40:30.097Z,86.43
2019-03-20T02:42:58.267Z,86.46
2019-03-20T02:45:26.126Z,85.96
2019-03-20T02:47:54.619Z,86.33
2019-03-20T02:50:22.820Z,86.29
2019-03-20T02:52:51.115Z,86.66
2019-03-20T02:55:19.163Z,86.49
2019-03-20T02:57:47.685Z,86.73
2019-03-20T03:00:16.251Z,86.57
2019-03-20T03:02:44.120Z,85.90
2019-03-20T03:05:12.090Z,86.26
2019-03-20T03:07:40.604Z,85.98
2019-03-20T03:10:09.334Z,85.58
2019-03-20T03:12:36.892Z,85.88
2019-03-20T03:15:05.517Z,85.80
2019-03-20T03:17:34.231Z,86.03
2019-03-20T03:20:02.280Z,86.50
2019-03-20T03:22:30.446Z,86.17
2019-03-20T03:24:59.052Z,86.26
2019-03-20T03:27:26.948Z,86.03
2019-03-20T03:29:55.719Z,86.37
2019-03-20T03:32:23.911Z,87.47
2019-03-20T03:34:52.194Z,87.07
2019-03-20T03:37:20.483Z,86.76
2019-03-20T03:39:48.800Z,86.56
2019-03-20T03:42:17.232Z,86.51
2019-03-20T03:44:45.687Z,86.63
2019-03-20T03:47:13.923Z,87.04
2019-03-20T03:49:42.411Z,86.70
2019-03-20T03:52:10.965Z,87.15
2019-03-20T03:54:39.178Z,86.94
2019-03-20T03:57:07.195Z,86.93
2019-03-20T03:59:35.019Z,87.08
2019-03-20T04:02:03.332Z,86.96
2019-03-20T04:04:31.888Z,87.46
2019-03-20T04:06:59.872Z,87.48
2019-03-20T04:09:28.377Z,87.50
2019-03-20T04:11:56.733Z,87.19
2019-03-20T04:14:25.107Z,86.68
2019-03-20T04:16:52.885Z,86.59
2019-03-20T04:19:21.395Z,86.79
2019-03-20T04:21:49.334Z,86.78
2019-03-20T04:24:17.681Z,87.22
2019-03-20T04:26:45.982Z,87.54
2019-03-20T04:29:13.892Z,87.19
2019-03-20T04:31:42.291Z,87.92
2019-03-20T04:34:10.942Z,87.52
2019-03-20T04:36:47.764Z,87.35
2019-03-20T04:39:16.199Z,87.53
2019-03-20T04:41:44.096Z,87.46
2019-03-20T04:44:12.603Z,86.99
2019-03-20T04:46:40.861Z,87.18
2019-03-20T04:49:09.394Z,87.31
2019-03-20T04:51:37.755Z,87.54
2019-03-20T04:54:06.119Z,87.40
2019-03-20T04:56:34.929Z,87.59
2019-03-20T04:59:03.156Z,87.85
2019-03-20T05:01:31.484Z,87.80
2019-03-20T05:03:59.740Z,88.11
2019-03-20T05:06:28.036Z,88.03
2019-03-20T05:08:56.676Z,87.52
2019-03-20T05:11:24.592Z,87.21
2019-03-20T05:13:52.880Z,87.27
2019-03-20T05:16:21.590Z,87.00
2019-03-20T05:18:50.137Z,86.91
2019-03-20T05:21:18.870Z,87.23
2019-03-20T05:23:47.112Z,87.32
2019-03-20T05:26:15.114Z,87.52
2019-03-20T05:28:43.347Z,87.44
2019-03-20T05:31:11.640Z,87.12
2019-03-20T05:33:39.790Z,86.98
2019-03-20T05:36:08.340Z,86.79
2019-03-20T05:38:36.561Z,86.70
2019-03-20T05:41:04.785Z,86.24
2019-03-20T05:43:33.598Z,87.07
2019-03-20T05:46:02.292Z,86.75
2019-03-20T05:48:30.972Z,87.19
2019-03-20T05:50:59.185Z,86.92
2019-03-20T05:53:46.388Z,86.93
2019-03-20T05:56:14.247Z,87.10
2019-03-20T05:58:42.932Z,86.72
2019-03-20T06:01:11.232Z,86.88
2019-03-20T06:03:39.511Z,86.99
2019-03-20T06:06:07.766Z,86.65
2019-03-20T06:08:36.079Z,87.30
2019-03-20T06:11:04.592Z,86.96
2019-03-20T06:13:32.740Z,86.30
2019-03-20T06:16:01.331Z,85.92
2019-03-20T06:18:29.615Z,85.95
2019-03-20T06:20:57.885Z,84.94
2019-03-20T06:23:26.476Z,82.69
2019-03-20T06:25:54.900Z,83.44
2019-03-20T06:28:23.154Z,83.76
2019-03-20T06:30:51.485Z,83.69
2019-03-20T06:33:19.906Z,83.89
2019-03-20T06:35:48.607Z,83.83
2019-03-20T06:38:16.880Z,83.07
2019-03-20T06:40:45.170Z,83.03
2019-03-20T06:43:13.868Z,83.16
2019-03-20T06:45:41.840Z,83.59
2019-03-20T06:48:10.076Z,83.90
2019-03-20T06:50:38.543Z,83.41
2019-03-20T06:53:06.074Z,83.19
2019-03-20T06:55:34.681Z,83.60
2019-03-20T06:58:02.886Z,83.79
2019-03-20T07:04:39.042Z,84.31
2019-03-20T07:07:31.846Z,84.27
2019-03-20T07:10:30.265Z,84.08
2019-03-20T07:12:58.577Z,83.42
2019-03-20T07:15:26.846Z,83.33
2019-03-20T07:17:55.228Z,83.10
2019-03-20T07:20:23.509Z,83.38
2019-03-20T07:22:52.117Z,83.66
2019-03-20T07:25:20.387Z,84.07
2019-03-20T07:27:48.979Z,83.76
2019-03-20T07:30:17.206Z,83.55
2019-03-20T07:32:45.767Z,83.29
2019-03-20T07:35:14.132Z,82.78
2019-03-20T07:37:42.561Z,82.33
2019-03-20T07:40:11.131Z,81.33
2019-03-20T07:42:38.663Z,80.98
2019-03-20T07:45:06.820Z,80.59
2019-03-20T07:47:34.730Z,80.54
2019-03-20T07:50:22.333Z,79.64
2019-03-20T07:52:50.250Z,78.75
2019-03-20T07:55:18.605Z,77.62
2019-03-20T07:57:46.924Z,77.04
2019-03-20T08:00:15.123Z,76.48
2019-03-20T08:02:43.092Z,76.32
2019-03-20T08:05:11.410Z,76.08
2019-03-20T08:07:40.018Z,75.39
2019-03-20T08:10:10.382Z,74.42
2019-03-20T08:12:39.185Z,72.84
2019-03-20T08:15:09.613Z,72.16
2019-03-20T08:17:37.917Z,70.97
2019-03-20T08:20:07.360Z,68.10
2019-03-20T08:22:36.132Z,66.30
2019-03-20T08:28:06.192Z,63.36
2019-03-20T08:30:34.463Z,62.62
2019-03-20T08:33:02.751Z,59.07
2019-03-20T08:35:31.132Z,58.00
2019-03-20T08:37:59.737Z,56.23
2019-03-20T08:40:28.010Z,53.83
2019-03-20T08:42:56.216Z,52.89
2019-03-20T08:45:24.452Z,49.35
2019-03-20T08:47:52.810Z,48.87
2019-03-20T08:50:21.141Z,45.92
2019-03-20T08:52:49.400Z,46.77
2019-03-20T08:58:40.498Z,43.93
2019-03-20T09:01:08.861Z,44.00
2019-03-20T09:03:37.189Z,43.67
2019-03-20T09:06:05.037Z,44.21
2019-03-20T09:08:33.601Z,42.97
2019-03-20T09:11:42.235Z,42.22
2019-03-20T09:14:10.630Z,42.89
2019-03-20T09:16:39.419Z,43.14
2019-03-20T09:19:06.598Z,43.48
2019-03-20T09:21:35.261Z,43.09
2019-03-20T09:24:03.965Z,43.09
2019-03-20T09:26:32.241Z,42.33
2019-03-20T09:29:00.801Z,44.42
2019-03-20T09:31:29.437Z,42.88
2019-03-20T09:33:57.503Z,43.10
2019-03-20T09:36:25.817Z,44.33
2019-03-20T09:38:54.075Z,42.94
2019-03-20T09:41:21.927Z,44.71
2019-03-20T09:43:50.152Z,43.51
2019-03-20T09:46:18.002Z,41.53
2019-03-20T09:48:45.512Z,42.24
2019-03-20T09:51:13.842Z,43.00
2019-03-20T09:53:42.356Z,42.62
2019-03-20T09:56:09.783Z,41.01
2019-03-20T09:58:37.964Z,39.74
2019-03-20T10:01:06.468Z,39.38
2019-03-20T10:03:35.039Z,40.10
2019-03-20T10:06:03.568Z,37.51
2019-03-20T10:08:32.339Z,38.54
2019-03-20T10:11:00.859Z,36.22
2019-03-20T10:13:28.776Z,35.57
2019-03-20T10:15:56.643Z,37.50
2019-03-20T10:18:25.031Z,35.96
2019-03-20T10:20:53.316Z,34.46
2019-03-20T10:23:21.928Z,33.08
2019-03-20T10:25:50.493Z,35.50
2019-03-20T10:28:18.456Z,34.12
2019-03-20T10:30:46.986Z,35.50
2019-03-20T10:33:16.679Z,36.98
2019-03-20T10:35:50.180Z,36.35
2019-03-20T10:38:21.321Z,36.86
2019-03-20T10:40:49.710Z,34.88
2019-03-20T10:43:17.635Z,35.89
2019-03-20T10:45:45.146Z,32.23
2019-03-20T10:48:13.476Z,31.26
2019-03-20T10:50:42.083Z,34.92
2019-03-20T10:53:10.743Z,33.29
2019-03-20T10:55:39.299Z,33.22
2019-03-20T10:58:07.562Z,34.20
2019-03-20T11:00:36.387Z,36.13
2019-03-20T11:03:04.311Z,33.61
2019-03-20T11:05:32.628Z,35.68
2019-03-20T11:08:00.976Z,34.50
2019-03-20T11:10:29.696Z,35.19
2019-03-20T11:12:58.012Z,35.68
2019-03-20T11:16:05.959Z,36.21
2019-03-20T11:18:34.721Z,33.88
2019-03-20T11:21:02.943Z,34.95
2019-03-20T11:23:30.601Z,35.01
2019-03-20T11:25:59.956Z,32.04
2019-03-20T11:28:28.483Z,30.53
2019-03-20T11:30:56.754Z,29.57
2019-03-20T11:33:24.997Z,29.73
2019-03-20T11:35:53.664Z,28.49
2019-03-20T11:38:22.252Z,29.43
2019-03-20T11:40:50.409Z,27.59
2019-03-20T11:43:19.022Z,29.63
2019-03-20T11:45:47.191Z,30.20
2019-03-20T11:48:15.816Z,33.23
2019-03-20T11:50:44.068Z,32.46
2019-03-20T11:53:31.440Z,34.20
2019-03-20T11:55:59.633Z,34.20
2019-03-20T11:58:28.382Z,33.96
2019-03-20T12:00:56.694Z,33.07
2019-03-20T12:03:24.622Z,32.64
2019-03-20T12:05:53.237Z,30.58
2019-03-20T12:08:21.181Z,29.85
2019-03-20T12:10:49.888Z,31.90
2019-03-20T12:13:18.221Z,31.32
2019-03-20T12:15:46.445Z,29.55
2019-03-20T12:18:14.717Z,31.83
2019-03-20T12:20:43.310Z,32.14
2019-03-20T12:23:11.277Z,29.99
2019-03-20T12:25:39.880Z,28.75
2019-03-20T12:28:08.468Z,29.11
2019-03-20T12:30:36.844Z,29.64
2019-03-20T12:33:05.163Z,28.25
2019-03-20T12:35:33.511Z,29.30
2019-03-20T12:38:13.373Z,29.91
2019-03-20T12:40:38.379Z,31.61
2019-03-20T12:43:06.751Z,30.09
2019-03-20T12:45:34.663Z,29.92
2019-03-20T12:51:12.166Z,30.89
2019-03-20T12:53:40.503Z,30.19
2019-03-20T12:56:08.777Z,30.10
2019-03-20T12:58:36.703Z,30.01
2019-03-20T13:04:06.286Z,30.68
2019-03-20T13:06:34.255Z,29.65
2019-03-20T13:09:03.803Z,30.34
2019-03-20T13:11:38.903Z,30.98
2019-03-20T13:14:07.301Z,31.23
2019-03-20T13:16:35.158Z,28.37
2019-03-20T13:19:03.366Z,28.97
2019-03-20T13:21:31.973Z,28.32
2019-03-20T13:24:00.642Z,27.08
2019-03-20T13:26:29.367Z,27.34
2019-03-20T13:28:58.107Z,26.18
2019-03-20T13:31:26.351Z,26.31
2019-03-20T13:33:55.024Z,26.17
2019-03-20T13:36:23.372Z,25.76
2019-03-20T13:38:51.539Z,24.34
2019-03-20T13:41:38.863Z,24.55
2019-03-20T13:44:07.661Z,24.55
2019-03-20T13:46:36.321Z,25.16
2019-03-20T13:49:04.977Z,25.39
2019-03-20T13:51:52.672Z,25.17
2019-03-20T13:54:20.939Z,25.17
2019-03-20T13:56:49.639Z,26.14
2019-03-20T13:59:18.031Z,24.42
2019-03-20T14:01:46.717Z,21.95
2019-03-20T14:04:15.007Z,21.95
2019-03-20T14:06:43.258Z,22.94
2019-03-20T14:09:10.853Z,22.98
2019-03-20T14:11:39.008Z,23.35
2019-03-20T14:14:07.660Z,24.72
2019-03-20T14:16:35.887Z,24.51
2019-03-20T14:19:04.369Z,24.96
2019-03-20T14:21:32.770Z,25.38
2019-03-20T14:24:01.208Z,25.56
2019-03-20T14:26:29.869Z,25.00
2019-03-20T14:28:58.113Z,22.86
2019-03-20T14:31:26.722Z,22.03
2019-03-20T14:33:55.435Z,20.31
2019-03-20T14:36:23.372Z,18.96
2019-03-20T14:38:51.723Z,19.31
2019-03-20T14:41:21.735Z,20.05
2019-03-20T14:43:57.416Z,19.38
2019-03-20T14:46:25.701Z,20.08
2019-03-20T14:48:53.254Z,20.70
2019-03-20T14:51:21.647Z,18.91
2019-03-20T14:53:50.350Z,19.26
2019-03-20T14:56:18.412Z,19.04
2019-03-20T14:58:46.697Z,20.85
2019-03-20T15:01:15.618Z,22.52
2019-03-20T15:03:44.389Z,21.09
2019-03-20T15:06:11.962Z,20.91
2019-03-20T15:08:40.235Z,19.48
2019-03-20T15:11:08.618Z,17.80
2019-03-20T15:13:36.504Z,18.49
2019-03-20T15:16:08.628Z,19.08
2019-03-20T15:18:37.284Z,18.51
2019-03-20T15:21:05.271Z,19.68
2019-03-20T15:23:32.893Z,18.72
2019-03-20T15:26:01.596Z,19.18
2019-03-20T15:28:30.022Z,18.61
2019-03-20T15:30:57.971Z,18.17
2019-03-20T15:33:25.974Z,19.15
2019-03-20T15:35:54.317Z,17.63
2019-03-20T15:38:22.211Z,18.97
2019-03-20T15:40:56.164Z,18.85
2019-03-20T15:43:25.772Z,19.27
2019-03-20T15:45:53.999Z,19.53
2019-03-20T15:48:22.295Z,19.71
2019-03-20T15:50:50.246Z,19.57
2019-03-20T15:53:18.790Z,19.68
2019-03-20T15:55:47.392Z,19.34
2019-03-20T15:58:15.297Z,20.07
2019-03-20T16:00:43.948Z,18.84
2019-03-20T16:03:14.539Z,20.36
2019-03-20T16:05:43.211Z,20.31
2019-03-20T16:08:11.573Z,20.44
2019-03-20T16:10:39.578Z,20.80
2019-03-20T16:13:07.847Z,21.93
2019-03-20T16:15:35.694Z,20.84
2019-03-20T16:18:04.521Z,20.59
2019-03-20T16:20:32.545Z,21.16
2019-03-20T16:23:01.004Z,21.62
2019-03-20T16:25:29.297Z,21.86
2019-03-20T16:27:57.253Z,22.63
2019-03-20T16:30:25.989Z,23.82
2019-03-20T16:32:56.493Z,23.64
2019-03-20T16:35:31.883Z,25.28
2019-03-20T16:38:00.577Z,25.67
2019-03-20T16:40:29.299Z,26.07
2019-03-20T16:42:57.502Z,28.68
2019-03-20T16:45:27.004Z,31.69
2019-03-20T16:47:57.403Z,33.50
2019-03-20T16:50:26.013Z,37.11
2019-03-20T16:52:54.284Z,38.08
2019-03-20T16:55:22.978Z,40.85
2019-03-20T16:57:51.081Z,41.35
2019-03-20T17:00:38.877Z,41.89
2019-03-20T17:03:07.168Z,43.73
2019-03-20T17:05:35.040Z,45.49
2019-03-20T17:08:03.824Z,44.79
2019-03-20T17:10:34.090Z,45.93
2019-03-20T17:13:02.075Z,47.84
2019-03-20T17:15:31.004Z,48.28
2019-03-20T17:17:59.418Z,49.39
2019-03-20T17:20:28.005Z,48.73
2019-03-20T17:22:55.931Z,49.64
2019-03-20T17:26:04.603Z,49.49
2019-03-20T17:28:32.790Z,49.73
2019-03-20T17:31:01.510Z,50.17
2019-03-20T17:33:30.344Z,51.63
2019-03-20T17:35:58.659Z,52.14
2019-03-20T17:38:27.123Z,52.11
2019-03-20T17:40:55.404Z,52.76
2019-03-20T17:43:24.139Z,52.56
2019-03-20T17:45:51.918Z,53.63
2019-03-20T17:48:20.295Z,53.47
2019-03-20T17:50:48.218Z,53.70
2019-03-20T17:53:16.628Z,53.59
2019-03-20T17:55:45.418Z,53.14
2019-03-20T17:58:14.157Z,54.11
2019-03-20T18:00:43.977Z,54.75
2019-03-20T18:06:13.630Z,55.71
2019-03-20T18:08:42.446Z,55.20
2019-03-20T18:11:10.818Z,54.84
2019-03-20T18:13:38.778Z,56.33
2019-03-20T18:16:07.360Z,56.53
2019-03-20T18:18:36.145Z,56.25
2019-03-20T18:21:04.896Z,57.65
2019-03-20T18:23:33.548Z,58.04
2019-03-20T18:26:02.066Z,58.36
2019-03-20T18:28:30.732Z,59.83
2019-03-20T18:30:59.513Z,58.80
2019-03-20T18:33:28.100Z,58.87
2019-03-20T18:35:55.648Z,59.46
2019-03-20T18:38:24.357Z,60.56
2019-03-20T18:40:52.267Z,61.14
2019-03-20T18:43:21.144Z,60.52
2019-03-20T18:45:49.448Z,60.70
2019-03-20T18:48:17.824Z,62.21
2019-03-20T18:50:46.508Z,62.10
2019-03-20T18:53:15.294Z,62.26
2019-03-20T18:55:43.658Z,61.84
2019-03-20T18:58:12.413Z,61.87
2019-03-20T19:00:40.752Z,62.29
2019-03-20T19:03:08.841Z,62.66
2019-03-20T19:05:39.875Z,63.79
2019-03-20T19:08:07.957Z,63.56
2019-03-20T19:10:36.774Z,63.54
2019-03-20T19:13:05.468Z,64.34
2019-03-20T19:15:34.002Z,64.55
2019-03-20T19:18:02.323Z,64.40
2019-03-20T19:20:30.382Z,63.83
2019-03-20T19:22:59.116Z,63.71
2019-03-20T19:25:27.476Z,65.72
2019-03-20T19:27:55.045Z,65.69
2019-03-20T19:30:23.398Z,65.52
2019-03-20T19:32:51.689Z,65.66
2019-03-20T19:35:20.189Z,66.02
2019-03-20T19:37:48.885Z,66.04
2019-03-20T19:40:17.353Z,66.20
2019-03-20T19:42:45.979Z,66.48
2019-03-20T19:45:14.522Z,65.94
2019-03-20T19:47:43.224Z,65.94
2019-03-20T19:50:12.995Z,65.83
2019-03-20T19:52:40.568Z,67.16
2019-03-20T19:55:09.455Z,67.38
2019-03-20T19:57:37.429Z,68.30
2019-03-20T20:00:06.963Z,67.38
2019-03-20T20:02:35.578Z,67.89
2019-03-20T20:05:15.032Z,67.22
2019-03-20T20:07:41.743Z,67.94
2019-03-20T20:10:10.664Z,67.08
2019-03-20T20:12:39.044Z,67.98
2019-03-20T20:15:10.057Z,67.30
2019-03-20T20:17:38.066Z,68.46
2019-03-20T20:20:07.092Z,67.85
2019-03-20T20:22:35.406Z,68.03
2019-03-20T20:25:04.035Z,68.76
2019-03-20T20:27:32.317Z,68.12
2019-03-20T20:30:00.573Z,68.32
2019-03-20T20:32:28.871Z,68.67
2019-03-20T20:34:57.152Z,67.95
2019-03-20T20:37:25.818Z,67.78
2019-03-20T20:39:54.150Z,68.40
2019-03-20T20:42:22.506Z,68.45
2019-03-20T20:44:51.200Z,68.62
2019-03-20T20:47:19.999Z,68.13
2019-03-20T20:49:48.449Z,68.68
2019-03-20T20:52:19.654Z,69.05
2019-03-20T20:54:53.340Z,68.23
2019-03-20T20:57:21.369Z,68.55
2019-03-20T20:59:49.670Z,68.56
2019-03-20T21:02:31.128Z,68.46
2019-03-20T21:05:00.363Z,68.28
2019-03-20T21:07:29.290Z,68.53
2019-03-20T21:09:57.673Z,67.76
2019-03-20T21:12:26.350Z,68.51
2019-03-20T21:14:55.004Z,69.06
2019-03-20T21:17:30.621Z,69.19
2019-03-20T21:20:00.033Z,69.84
2019-03-20T21:23:06.938Z,70.09
2019-03-20T21:25:35.855Z,69.20
2019-03-20T21:28:43.480Z,69.97
2019-03-20T21:31:50.990Z,71.05
2019-03-20T21:34:57.479Z,69.64
2019-03-20T21:38:05.160Z,68.82
2019-03-20T21:40:45.284Z,71.36
2019-03-20T21:43:52.078Z,71.06
2019-03-20T21:46:58.799Z,72.22
2019-03-20T21:49:27.309Z,73.10
2019-03-20T21:51:56.548Z,72.45
2019-03-20T21:55:03.016Z,72.32
2019-03-20T21:57:55.841Z,72.27
2019-03-20T22:00:36.174Z,71.86
2019-03-20T22:03:04.912Z,73.12
2019-03-20T22:05:57.015Z,73.13
2019-03-20T22:08:25.458Z,72.15
2019-03-20T22:11:32.126Z,73.45
2019-03-20T22:14:04.817Z,72.66
2019-03-20T22:17:11.256Z,72.52
2019-03-20T22:23:28.378Z,71.86
2019-03-20T22:26:34.767Z,72.21
2019-03-20T22:29:22.658Z,72.69
2019-03-20T22:32:29.394Z,72.39
2019-03-20T22:35:35.884Z,72.82
2019-03-20T22:38:08.138Z,73.69
2019-03-20T22:41:14.844Z,73.73
2019-03-20T22:47:21.744Z,73.62
2019-03-20T22:50:16.339Z,73.26
2019-03-20T22:53:23.060Z,73.88
2019-03-20T22:56:14.431Z,72.86
2019-03-20T22:58:41.858Z,74.77
2019-03-20T23:01:12.089Z,73.54
2019-03-20T23:03:44.264Z,74.36
2019-03-20T23:06:13.049Z,74.95
2019-03-20T23:08:42.150Z,74.60
2019-03-20T23:11:10.884Z,74.44
2019-03-20T23:13:41.746Z,74.69
2019-03-20T23:16:10.962Z,74.58
2019-03-20T23:18:39.721Z,74.08
2019-03-20T23:21:08.794Z,73.51
2019-03-20T23:23:39.095Z,73.05
2019-03-20T23:26:08.161Z,74.20
2019-03-20T23:28:37.018Z,73.85
2019-03-20T23:31:06.209Z,74.11
2019-03-20T23:33:34.621Z,74.56
2019-03-20T23:36:03.828Z,75.87
2019-03-20T23:38:32.933Z,75.63
2019-03-20T23:41:02.102Z,75.38
2019-03-20T23:43:31.261Z,75.68
2019-03-20T23:46:00.760Z,74.68
2019-03-20T23:49:07.401Z,76.02
2019-03-20T23:51:35.870Z,76.20
2019-03-20T23:54:04.350Z,75.53
2019-03-20T23:56:34.380Z,75.42
2019-03-20T23:59:03.788Z,76.56
